createdAt,value
2022-10-29T00:02:25.593Z,101732.03
2022-10-29T00:04:52.270Z,101730.97
2022-10-29T00:07:18.903Z,101733.19
2022-10-29T00:09:45.665Z,101725.78
2022-10-29T00:12:12.333Z,101722.16
2022-10-29T00:14:39.162Z,101722.06
2022-10-29T00:17:05.859Z,101713.47
2022-10-29T00:19:32.566Z,101720.47
2022-10-29T00:21:59.224Z,101720.47
2022-10-29T00:24:25.910Z,101721.41
2022-10-29T00:26:52.642Z,101725.44
2022-10-29T00:29:19.331Z,101727.06
2022-10-29T00:31:46.045Z,101720.75
2022-10-29T00:34:12.941Z,101722.50
2022-10-29T00:36:39.972Z,101722.25
2022-10-29T00:39:06.667Z,101723.84
2022-10-29T00:41:33.395Z,101712.06
2022-10-29T00:44:35.718Z,101724.66
2022-10-29T00:47:31.900Z,101727.75
2022-10-29T00:50:10.915Z,101718.81
2022-10-29T00:52:42.419Z,101716.19
2022-10-29T00:55:10.299Z,101721.28
2022-10-29T00:57:39.801Z,101721.63
2022-10-29T01:00:07.404Z,101720.03
2022-10-29T01:02:35.966Z,101710.69
2022-10-29T01:05:04.204Z,101712.22
2022-10-29T01:07:30.957Z,101705.94
2022-10-29T01:09:57.849Z,101716.59
2022-10-29T01:12:44.171Z,101705.75
2022-10-29T01:15:16.335Z,101700.97
2022-10-29T01:18:10.962Z,101699.91
2022-10-29T01:21:08.922Z,101697.41
2022-10-29T01:23:42.624Z,101691.47
2022-10-29T01:26:28.148Z,101695.28
2022-10-29T01:28:54.775Z,101695.09
2022-10-29T01:31:49.141Z,101689.25
2022-10-29T01:34:33.046Z,101691.66
2022-10-29T01:37:02.632Z,101696.88
2022-10-29T01:39:45.303Z,101692.91
2022-10-29T01:42:27.423Z,101697.16
2022-10-29T01:45:16.758Z,101694.31
2022-10-29T01:47:55.323Z,101688.63
2022-10-29T01:50:23.997Z,101689.06
2022-10-29T01:52:51.328Z,101691.63
2022-10-29T01:55:23.923Z,101689.66
2022-10-29T01:57:51.061Z,101684.59
2022-10-29T02:00:20.094Z,101685.25
2022-10-29T02:03:21.053Z,101680.66
2022-10-29T02:06:00.525Z,101677.63
2022-10-29T02:08:27.231Z,101662.50
2022-10-29T02:11:01.152Z,101656.88
2022-10-29T02:13:33.106Z,101659.75
2022-10-29T02:16:02.984Z,101659.63
2022-10-29T02:18:29.740Z,101657.25
2022-10-29T02:20:56.400Z,101646.16
2022-10-29T02:23:23.168Z,101651.38
2022-10-29T02:25:50.169Z,101635.50
2022-10-29T02:28:16.848Z,101641.34
2022-10-29T02:30:43.589Z,101636.09
2022-10-29T02:33:10.378Z,101639.50
2022-10-29T02:35:37.173Z,101639.50
2022-10-29T02:38:03.872Z,101641.09
2022-10-29T02:40:30.564Z,101644.19
2022-10-29T02:42:57.593Z,101650.03
2022-10-29T02:45:24.374Z,101645.56
2022-10-29T02:47:51.018Z,101647.13
2022-10-29T02:50:18.049Z,101637.22
2022-10-29T02:52:44.865Z,101601.03
2022-10-29T02:55:11.538Z,101604.88
2022-10-29T02:57:38.141Z,101609.47
2022-10-29T03:00:05.935Z,101594.19
2022-10-29T03:02:32.735Z,101589.16
2022-10-29T03:04:59.456Z,101590.25
2022-10-29T03:07:26.055Z,101583.84
2022-10-29T03:09:52.667Z,101579.00
2022-10-29T03:12:19.550Z,101577.91
2022-10-29T03:14:46.295Z,101570.56
2022-10-29T03:17:13.108Z,101568.41
2022-10-29T03:19:39.792Z,101558.31
2022-10-29T03:22:06.568Z,101562.84
2022-10-29T03:24:33.254Z,101555.56
2022-10-29T03:27:00.018Z,101553.22
2022-10-29T03:29:26.661Z,101545.38
2022-10-29T03:31:53.364Z,101539.31
2022-10-29T03:34:20.161Z,101539.81
2022-10-29T03:36:46.820Z,101534.88
2022-10-29T03:39:13.488Z,101541.56
2022-10-29T03:41:40.164Z,101540.34
2022-10-29T03:44:06.832Z,101540.34
2022-10-29T03:46:34.220Z,101542.66
2022-10-29T03:49:00.931Z,101528.56
2022-10-29T03:51:27.818Z,101518.72
2022-10-29T03:53:54.704Z,101516.13
2022-10-29T03:56:21.573Z,101520.09
2022-10-29T03:58:48.225Z,101521.56
2022-10-29T04:01:15.001Z,101518.31
2022-10-29T04:03:42.550Z,101519.09
2022-10-29T04:06:13.697Z,101509.88
2022-10-29T04:08:40.657Z,101509.34
2022-10-29T04:11:10.578Z,101504.09
2022-10-29T04:13:37.521Z,101515.00
2022-10-29T04:16:04.455Z,101507.84
2022-10-29T04:18:31.219Z,101505.56
2022-10-29T04:29:23.156Z,101496.50
2022-10-29T04:31:49.973Z,101500.66
2022-10-29T04:34:16.815Z,101503.91
2022-10-29T04:36:43.464Z,101510.31
2022-10-29T04:39:10.306Z,101507.69
2022-10-29T04:41:36.978Z,101501.84
2022-10-29T04:44:03.832Z,101492.59
2022-10-29T04:46:30.483Z,101492.00
2022-10-29T04:48:57.392Z,101488.47
2022-10-29T04:51:26.132Z,101491.56
2022-10-29T04:53:52.862Z,101488.88
2022-10-29T04:56:19.603Z,101486.03
2022-10-29T04:58:46.392Z,101475.13
2022-10-29T05:01:13.316Z,101457.03
2022-10-29T05:03:40.207Z,101470.06
2022-10-29T05:06:07.335Z,101482.50
2022-10-29T05:08:34.195Z,101475.19
2022-10-29T05:11:05.137Z,101466.88
2022-10-29T05:13:32.991Z,101457.78
2022-10-29T05:16:00.051Z,101462.28
2022-10-29T05:18:26.918Z,101455.81
2022-10-29T05:20:54.890Z,101465.28
2022-10-29T05:23:22.203Z,101467.94
2022-10-29T05:25:49.333Z,101463.75
2022-10-29T05:28:20.863Z,101477.25
2022-10-29T05:30:49.595Z,101477.13
2022-10-29T05:33:18.321Z,101470.69
2022-10-29T05:35:45.116Z,101476.44
2022-10-29T05:38:12.709Z,101472.38
2022-10-29T05:40:39.825Z,101472.44
2022-10-29T05:43:06.476Z,101467.94
2022-10-29T05:45:33.131Z,101462.34
2022-10-29T05:48:02.153Z,101461.94
2022-10-29T05:50:29.631Z,101464.50
2022-10-29T05:52:56.467Z,101465.28
2022-10-29T05:55:25.529Z,101467.03
2022-10-29T05:58:01.911Z,101472.72
2022-10-29T06:00:30.530Z,101471.94
2022-10-29T06:02:57.803Z,101470.25
2022-10-29T06:05:25.404Z,101467.84
2022-10-29T06:07:56.480Z,101469.19
2022-10-29T06:10:23.963Z,101462.78
2022-10-29T06:12:50.810Z,101479.53
2022-10-29T06:15:18.322Z,101471.41
2022-10-29T06:17:45.710Z,101472.53
2022-10-29T06:20:14.621Z,101465.91
2022-10-29T06:22:41.309Z,101457.91
2022-10-29T06:25:08.604Z,101452.25
2022-10-29T06:27:35.528Z,101452.91
2022-10-29T06:30:02.399Z,101459.44
2022-10-29T06:32:29.231Z,101458.28
2022-10-29T06:34:55.888Z,101453.25
2022-10-29T06:37:22.603Z,101459.06
2022-10-29T06:39:49.764Z,101456.50
2022-10-29T06:42:16.550Z,101458.81
2022-10-29T06:44:43.290Z,101458.31
2022-10-29T06:47:10.005Z,101449.22
2022-10-29T06:49:36.717Z,101459.56
2022-10-29T06:52:03.490Z,101448.00
2022-10-29T06:54:30.233Z,101447.47
2022-10-29T06:56:56.967Z,101449.75
2022-10-29T06:59:25.670Z,101456.81
2022-10-29T07:01:53.038Z,101441.34
2022-10-29T07:04:20.884Z,101455.72
2022-10-29T07:06:47.536Z,101445.34
2022-10-29T07:09:14.359Z,101438.97
2022-10-29T07:11:41.056Z,101439.94
2022-10-29T07:14:09.899Z,101436.41
2022-10-29T07:16:37.019Z,101440.91
2022-10-29T07:19:04.337Z,101439.66
2022-10-29T07:21:31.111Z,101431.44
2022-10-29T07:23:57.839Z,101430.28
2022-10-29T07:26:24.641Z,101431.00
2022-10-29T07:28:51.345Z,101441.63
2022-10-29T07:31:18.089Z,101432.25
2022-10-29T07:33:44.801Z,101432.34
2022-10-29T07:36:17.314Z,101437.72
2022-10-29T07:38:44.540Z,101429.03
2022-10-29T07:41:11.221Z,101434.63
2022-10-29T07:43:37.985Z,101437.66
2022-10-29T07:46:04.833Z,101442.69
2022-10-29T07:48:38.070Z,101441.78
2022-10-29T07:51:05.140Z,101436.84
2022-10-29T07:53:35.053Z,101428.69
2022-10-29T07:56:01.999Z,101437.94
2022-10-29T07:58:28.644Z,101440.38
2022-10-29T08:00:55.437Z,101442.91
2022-10-29T08:03:22.388Z,101434.34
2022-10-29T08:05:55.337Z,101427.34
2022-10-29T08:08:24.004Z,101428.00
2022-10-29T08:10:50.858Z,101439.25
2022-10-29T08:13:17.545Z,101441.09
2022-10-29T08:15:46.597Z,101439.09
2022-10-29T08:18:20.138Z,101444.13
2022-10-29T08:20:47.469Z,101427.59
2022-10-29T08:23:14.810Z,101436.81
2022-10-29T08:25:53.173Z,101433.56
2022-10-29T08:28:40.531Z,101434.06
2022-10-29T08:31:07.652Z,101436.88
2022-10-29T08:33:34.584Z,101439.72
2022-10-29T08:36:01.850Z,101435.13
2022-10-29T08:38:28.911Z,101420.72
2022-10-29T08:41:33.700Z,101442.81
2022-10-29T08:44:32.669Z,101434.72
2022-10-29T08:47:09.400Z,101426.63
2022-10-29T08:49:45.825Z,101428.13
2022-10-29T08:52:19.977Z,101432.78
2022-10-29T08:55:14.138Z,101428.59
2022-10-29T08:57:54.994Z,101419.41
2022-10-29T09:00:25.890Z,101415.22
2022-10-29T09:03:15.798Z,101405.97
2022-10-29T09:06:15.796Z,101408.13
2022-10-29T09:09:07.468Z,101415.03
2022-10-29T09:11:43.367Z,101418.25
2022-10-29T09:14:38.363Z,101418.69
2022-10-29T09:17:15.774Z,101421.97
2022-10-29T09:20:27.995Z,101406.41
2022-10-29T09:23:14.504Z,101410.72
2022-10-29T09:25:59.995Z,101417.41
2022-10-29T09:28:48.433Z,101409.72
2022-10-29T09:32:00.640Z,101382.34
2022-10-29T09:34:31.607Z,101401.72
2022-10-29T09:36:59.960Z,101404.91
2022-10-29T09:39:46.293Z,101401.31
2022-10-29T09:42:17.710Z,101410.00
2022-10-29T09:45:12.265Z,101397.91
2022-10-29T09:48:01.285Z,101404.81
2022-10-29T09:50:54.888Z,101407.56
2022-10-29T09:53:24.769Z,101410.25
2022-10-29T09:55:57.074Z,101393.56
2022-10-29T09:58:27.889Z,101392.44
2022-10-29T10:01:31.171Z,101398.13
2022-10-29T10:05:06.871Z,101391.16
2022-10-29T10:07:37.076Z,101394.69
2022-10-29T10:10:07.071Z,101391.00
2022-10-29T10:12:45.630Z,101402.38
2022-10-29T10:15:25.948Z,101400.47
2022-10-29T10:18:03.202Z,101390.19
2022-10-29T10:20:49.765Z,101397.28
2022-10-29T10:23:21.193Z,101405.97
2022-10-29T10:25:48.915Z,101393.88
2022-10-29T10:28:30.305Z,101395.97
2022-10-29T10:31:26.737Z,101382.09
2022-10-29T10:33:56.442Z,101368.31
2022-10-29T10:36:32.111Z,101378.41
2022-10-29T10:39:02.413Z,101371.97
2022-10-29T10:41:35.436Z,101382.28
2022-10-29T10:44:04.516Z,101371.84
2022-10-29T10:46:36.821Z,101381.72
2022-10-29T10:49:42.040Z,101370.88
2022-10-29T10:52:22.509Z,101373.88
2022-10-29T10:55:01.923Z,101356.41
2022-10-29T10:57:57.215Z,101370.53
2022-10-29T11:00:28.898Z,101370.66
2022-10-29T11:03:09.259Z,101366.97
2022-10-29T11:05:49.437Z,101361.19
2022-10-29T11:08:27.036Z,101355.84
2022-10-29T11:10:56.906Z,101367.41
2022-10-29T11:13:27.529Z,101359.09
2022-10-29T11:16:02.911Z,101350.22
2022-10-29T11:18:56.270Z,101354.59
2022-10-29T11:21:35.912Z,101347.09
2022-10-29T11:24:26.169Z,101343.72
2022-10-29T11:27:06.996Z,101341.69
2022-10-29T11:30:02.347Z,101348.00
2022-10-29T11:32:47.040Z,101329.50
2022-10-29T11:35:19.896Z,101338.13
2022-10-29T11:37:56.834Z,101339.50
2022-10-29T11:40:46.591Z,101335.06
2022-10-29T11:43:14.957Z,101334.44
2022-10-29T11:46:00.268Z,101332.59
2022-10-29T11:48:49.185Z,101326.44
2022-10-29T11:51:34.671Z,101320.03
2022-10-29T11:54:23.689Z,101321.72
2022-10-29T11:57:04.640Z,101319.00
2022-10-29T11:59:53.051Z,101313.75
2022-10-29T12:02:56.305Z,101313.16
2022-10-29T12:06:01.911Z,101302.84
2022-10-29T12:08:42.753Z,101305.47
2022-10-29T12:11:27.438Z,101291.03
2022-10-29T12:14:13.025Z,101293.69
2022-10-29T12:16:51.631Z,101285.13
2022-10-29T12:19:41.002Z,101286.28
2022-10-29T12:22:33.854Z,101287.13
2022-10-29T12:25:10.534Z,101289.72
2022-10-29T12:27:45.162Z,101279.13
2022-10-29T12:30:15.579Z,101286.28
2022-10-29T12:32:52.502Z,101281.13
2022-10-29T12:35:39.116Z,101286.25
2022-10-29T12:38:30.599Z,101279.09
2022-10-29T12:41:25.513Z,101279.91
2022-10-29T12:43:55.957Z,101268.75
2022-10-29T12:46:43.160Z,101272.78
2022-10-29T12:49:28.533Z,101272.66
2022-10-29T12:54:32.539Z,101258.81
2022-10-29T12:57:15.016Z,101262.75
2022-10-29T12:59:43.272Z,101242.81
2022-10-29T13:02:51.856Z,101255.84
2022-10-29T13:05:25.714Z,101247.59
2022-10-29T13:08:01.718Z,101252.41
2022-10-29T13:10:34.573Z,101250.69
2022-10-29T13:13:02.799Z,101247.09
2022-10-29T13:15:37.099Z,101242.56
2022-10-29T13:18:44.729Z,101239.03
2022-10-29T13:21:11.524Z,101239.84
2022-10-29T13:23:40.912Z,101235.44
2022-10-29T13:26:08.932Z,101236.25
2022-10-29T13:28:35.683Z,101237.00
2022-10-29T13:31:08.677Z,101240.50
2022-10-29T13:33:38.615Z,101237.44
2022-10-29T13:36:06.961Z,101229.50
2022-10-29T13:38:58.600Z,101229.88
2022-10-29T13:41:43.652Z,101233.06
2022-10-29T13:44:13.484Z,101224.72
2022-10-29T13:46:50.792Z,101217.63
2022-10-29T13:49:28.175Z,101227.53
2022-10-29T13:52:02.495Z,101228.75
2022-10-29T13:54:39.749Z,101219.22
2022-10-29T13:57:12.654Z,101223.59
2022-10-29T14:00:00.214Z,101228.34
2022-10-29T14:02:42.387Z,101220.81
2022-10-29T14:05:15.203Z,101209.75
2022-10-29T14:07:59.937Z,101201.91
2022-10-29T14:10:50.078Z,101202.19
2022-10-29T14:13:23.641Z,101194.25
2022-10-29T14:16:03.820Z,101193.84
2022-10-29T14:18:32.680Z,101185.16
2022-10-29T14:21:01.470Z,101180.09
2022-10-29T14:23:29.830Z,101184.00
2022-10-29T14:26:00.369Z,101185.94
2022-10-29T14:28:30.297Z,101202.81
2022-10-29T14:31:07.327Z,101200.84
2022-10-29T14:33:36.455Z,101200.06
2022-10-29T14:36:31.365Z,101195.78
2022-10-29T14:39:02.599Z,101193.31
2022-10-29T14:41:30.989Z,101193.75
2022-10-29T14:44:29.047Z,101193.44
2022-10-29T14:47:32.143Z,101200.56
2022-10-29T14:50:03.090Z,101175.59
2022-10-29T14:52:38.789Z,101195.75
2022-10-29T14:55:17.495Z,101183.50
2022-10-29T14:57:47.847Z,101187.78
2022-10-29T15:00:26.874Z,101191.84
2022-10-29T15:02:55.332Z,101185.88
2022-10-29T15:05:24.515Z,101194.94
2022-10-29T15:07:51.465Z,101183.34
2022-10-29T15:10:24.970Z,101187.25
2022-10-29T15:12:52.533Z,101175.47
2022-10-29T15:15:19.475Z,101184.56
2022-10-29T15:18:08.497Z,101184.53
2022-10-29T15:20:37.976Z,101179.31
2022-10-29T15:23:05.269Z,101176.16
2022-10-29T15:25:42.154Z,101174.72
2022-10-29T15:28:11.265Z,101184.91
2022-10-29T15:30:44.687Z,101175.88
2022-10-29T15:33:21.568Z,101168.75
2022-10-29T15:36:13.806Z,101164.59
2022-10-29T15:38:52.425Z,101172.91
2022-10-29T15:41:52.609Z,101162.75
2022-10-29T15:44:29.703Z,101149.88
2022-10-29T15:47:00.578Z,101147.69
2022-10-29T15:49:35.237Z,101151.94
2022-10-29T15:52:06.743Z,101132.56
2022-10-29T15:54:36.948Z,101144.41
2022-10-29T15:57:04.266Z,101147.16
2022-10-29T15:59:31.935Z,101130.63
2022-10-29T16:02:05.278Z,101134.53
2022-10-29T16:04:40.349Z,101124.19
2022-10-29T16:07:18.037Z,101134.47
2022-10-29T16:09:54.009Z,101118.94
2022-10-29T16:12:21.214Z,101120.44
2022-10-29T16:14:47.971Z,101112.53
2022-10-29T16:17:17.597Z,101122.56
2022-10-29T16:19:44.576Z,101124.16
2022-10-29T16:22:17.519Z,101130.03
2022-10-29T16:24:47.849Z,101129.63
2022-10-29T16:27:16.823Z,101129.69
2022-10-29T16:29:43.480Z,101134.34
2022-10-29T16:32:15.416Z,101136.94
2022-10-29T16:34:42.407Z,101133.03
2022-10-29T16:37:14.497Z,101141.38
2022-10-29T16:39:41.869Z,101129.81
2022-10-29T16:42:28.782Z,101129.09
2022-10-29T16:44:55.794Z,101136.28
2022-10-29T16:47:22.587Z,101140.22
2022-10-29T16:49:49.548Z,101139.78
2022-10-29T16:52:21.000Z,101142.53
2022-10-29T16:54:50.291Z,101142.09
2022-10-29T16:57:17.047Z,101155.78
2022-10-29T16:59:43.807Z,101169.81
2022-10-29T17:02:11.482Z,101170.03
2022-10-29T17:04:38.386Z,101173.59
2022-10-29T17:07:05.171Z,101173.97
2022-10-29T17:09:35.380Z,101187.00
2022-10-29T17:12:02.469Z,101197.19
2022-10-29T17:14:29.279Z,101188.88
2022-10-29T17:16:57.243Z,101189.25
2022-10-29T17:19:24.200Z,101202.22
2022-10-29T17:21:51.233Z,101189.16
2022-10-29T17:24:17.997Z,101194.75
2022-10-29T17:26:44.872Z,101194.50
2022-10-29T17:29:11.739Z,101202.47
2022-10-29T17:31:38.603Z,101205.16
2022-10-29T17:34:05.441Z,101205.16
2022-10-29T17:36:32.271Z,101207.66
2022-10-29T17:38:59.143Z,101206.81
2022-10-29T17:41:25.896Z,101200.03
2022-10-29T17:43:52.741Z,101206.75
2022-10-29T17:46:19.589Z,101198.78
2022-10-29T17:48:46.269Z,101192.84
2022-10-29T17:51:13.125Z,101206.97
2022-10-29T17:53:39.900Z,101199.97
2022-10-29T17:56:15.694Z,101203.56
2022-10-29T17:58:42.510Z,101200.94
2022-10-29T18:01:10.497Z,101198.25
2022-10-29T18:03:38.131Z,101210.44
2022-10-29T18:06:07.703Z,101209.81
2022-10-29T18:08:39.046Z,101213.31
2022-10-29T18:11:14.780Z,101208.50
2022-10-29T18:13:43.233Z,101206.44
2022-10-29T18:16:18.614Z,101210.09
2022-10-29T18:19:00.938Z,101209.81
2022-10-29T18:21:37.632Z,101215.28
2022-10-29T18:24:06.999Z,101216.28
2022-10-29T18:26:37.527Z,101211.78
2022-10-29T18:29:08.609Z,101208.31
2022-10-29T18:31:35.814Z,101226.84
2022-10-29T18:34:06.693Z,101219.81
2022-10-29T18:36:35.872Z,101211.44
2022-10-29T18:39:04.167Z,101215.34
2022-10-29T18:41:40.525Z,101198.38
2022-10-29T18:44:12.637Z,101191.25
2022-10-29T18:46:47.898Z,101205.19
2022-10-29T18:49:14.777Z,101204.81
2022-10-29T18:51:41.734Z,101202.50
2022-10-29T18:54:10.671Z,101210.53
2022-10-29T18:56:37.455Z,101208.09
2022-10-29T18:59:04.592Z,101206.88
2022-10-29T19:01:32.922Z,101211.72
2022-10-29T19:04:02.268Z,101216.06
2022-10-29T19:06:30.751Z,101224.53
2022-10-29T19:09:00.223Z,101216.28
2022-10-29T19:11:27.794Z,101208.56
2022-10-29T19:13:59.788Z,101214.88
2022-10-29T19:16:27.261Z,101205.56
2022-10-29T19:18:56.145Z,101212.53
2022-10-29T19:21:22.944Z,101222.97
2022-10-29T19:23:57.473Z,101222.00
2022-10-29T19:26:25.946Z,101224.31
2022-10-29T19:28:53.198Z,101228.22
2022-10-29T19:31:26.629Z,101220.16
2022-10-29T19:33:56.027Z,101226.72
2022-10-29T19:36:23.688Z,101230.38
2022-10-29T19:38:50.866Z,101227.34
2022-10-29T19:41:18.111Z,101245.03
2022-10-29T19:43:45.553Z,101232.34
2022-10-29T19:46:17.923Z,101232.41
2022-10-29T19:48:50.446Z,101238.72
2022-10-29T19:51:17.780Z,101233.22
2022-10-29T19:53:45.217Z,101234.00
2022-10-29T19:56:13.764Z,101235.53
2022-10-29T19:58:40.669Z,101236.69
2022-10-29T20:01:10.596Z,101238.94
2022-10-29T20:03:37.533Z,101231.84
2022-10-29T20:06:04.500Z,101227.56
2022-10-29T20:08:31.389Z,101228.72
2022-10-29T20:10:59.354Z,101227.53
2022-10-29T20:13:26.604Z,101233.06
2022-10-29T20:15:53.729Z,101243.13
2022-10-29T20:18:20.962Z,101236.47
2022-10-29T20:20:55.070Z,101231.75
2022-10-29T20:23:22.336Z,101228.63
2022-10-29T20:25:49.123Z,101237.84
2022-10-29T20:28:16.339Z,101238.91
2022-10-29T20:30:43.481Z,101237.78
2022-10-29T20:33:10.427Z,101242.91
2022-10-29T20:35:38.858Z,101242.50
2022-10-29T20:38:06.496Z,101236.63
2022-10-29T20:40:34.193Z,101237.78
2022-10-29T20:43:01.045Z,101239.31
2022-10-29T20:45:28.011Z,101242.81
2022-10-29T20:47:55.185Z,101245.50
2022-10-29T20:50:22.574Z,101245.50
2022-10-29T20:52:51.538Z,101241.38
2022-10-29T20:55:18.387Z,101243.03
2022-10-29T20:57:45.143Z,101251.72
2022-10-29T21:00:12.332Z,101248.19
2022-10-29T21:02:39.182Z,101261.59
2022-10-29T21:05:06.562Z,101259.03
2022-10-29T21:07:33.679Z,101263.00
2022-10-29T21:12:27.220Z,101258.13
2022-10-29T21:14:54.053Z,101264.06
2022-10-29T21:17:22.215Z,101266.31
2022-10-29T21:19:49.314Z,101266.31
2022-10-29T21:22:18.881Z,101265.88
2022-10-29T21:24:46.162Z,101268.69
2022-10-29T21:27:12.984Z,101272.06
2022-10-29T21:29:40.259Z,101269.25
2022-10-29T21:32:10.223Z,101279.94
2022-10-29T21:34:41.214Z,101280.81
2022-10-29T21:37:07.897Z,101281.97
2022-10-29T21:39:34.955Z,101281.78
2022-10-29T21:42:01.820Z,101275.84
2022-10-29T21:44:28.531Z,101289.00
2022-10-29T21:46:55.306Z,101280.66
2022-10-29T21:49:22.062Z,101296.88
2022-10-29T21:51:50.005Z,101300.25
2022-10-29T21:54:16.731Z,101300.28
2022-10-29T21:56:43.804Z,101290.59
2022-10-29T21:59:10.673Z,101293.16
2022-10-29T22:01:37.555Z,101290.94
2022-10-29T22:04:05.540Z,101289.66
2022-10-29T22:06:32.290Z,101298.09
2022-10-29T22:09:00.158Z,101295.69
2022-10-29T22:11:30.074Z,101291.94
2022-10-29T22:13:56.946Z,101295.59
2022-10-29T22:16:23.801Z,101295.31
2022-10-29T22:18:51.140Z,101293.13
2022-10-29T22:21:23.927Z,101294.81
2022-10-29T22:23:53.148Z,101288.75
2022-10-29T22:26:22.039Z,101306.53
2022-10-29T22:28:50.993Z,101304.44
2022-10-29T22:31:19.801Z,101302.94
2022-10-29T22:33:46.708Z,101309.81
2022-10-29T22:36:19.097Z,101307.75
2022-10-29T22:38:46.484Z,101310.38
2022-10-29T22:41:15.857Z,101316.34
2022-10-29T22:43:43.873Z,101317.38
2022-10-29T22:46:12.891Z,101304.31
2022-10-29T22:48:40.360Z,101318.91
2022-10-29T22:51:10.914Z,101310.81
2022-10-29T22:53:37.771Z,101313.88
2022-10-29T22:56:05.645Z,101316.88
2022-10-29T22:58:34.939Z,101324.41
2022-10-29T23:01:12.308Z,101320.97
2022-10-29T23:03:40.081Z,101325.94
2022-10-29T23:06:08.951Z,101324.63
2022-10-29T23:08:36.042Z,101319.94
2022-10-29T23:14:35.793Z,101305.91
2022-10-29T23:17:02.791Z,101310.97
2022-10-29T23:19:29.523Z,101317.09
2022-10-29T23:21:56.454Z,101316.97
2022-10-29T23:24:23.423Z,101315.59
2022-10-29T23:26:50.074Z,101325.63
2022-10-29T23:29:16.953Z,101322.75
2022-10-29T23:31:44.175Z,101320.34
2022-10-29T23:34:12.121Z,101313.56
2022-10-29T23:36:39.050Z,101326.59
2022-10-29T23:39:05.776Z,101316.91
2022-10-29T23:41:32.427Z,101324.09
2022-10-29T23:43:59.204Z,101322.69
2022-10-29T23:46:26.073Z,101321.13
2022-10-29T23:48:52.760Z,101324.16
2022-10-29T23:51:19.649Z,101325.91
2022-10-29T23:53:46.383Z,101328.50
2022-10-29T23:56:13.327Z,101322.91
2022-10-29T23:58:40.639Z,101319.94
